KSEG/SEG METAR and TAF weather

Enter ICAO airport designator
Station Type Date Time Source
KSEG METAR 2020/12/06 00:53 UTC NOAA

KSEG 060053Z AUTO 31007KT 10SM FEW047 OVC065 04/M04 A2992 RMK AO2 SLP134 T00441039


Station Type Date Time Source
KSEG Decoded METAR 2020/12/06 00:53 UTC NOAA

SELINSGROVE PENN VALLEY AIRPORT , PA, United States (KSEG) 40-49N 076-52W 134M
Dec 05, 2020 - 07:53 PM EST / 2020.12.06 0053 UTC
Wind: from the NW (310 degrees) at 8 MPH (7 KT):0
Visibility: 10 mile(s):0
Sky conditions: overcast
Temperature: 39.9 F (4.4 C)
Dew Point: 25.0 F (-3.9 C)
Relative Humidity: 54%
Pressure (altimeter): 29.92 in. Hg (1013 hPa)
ob: KSEG 060053Z AUTO 31007KT 10SM FEW047 OVC065 04/M04 A2992 RMK AO2 SLP134 T00441039
cycle: 1

Station Type Date Time Source
KSEG TAF UTC NOAA

Error!

Example: see airport list